createdAt,value
2022-09-20T00:01:16.298Z,84.20
2022-09-20T00:03:46.486Z,84.35
2022-09-20T00:06:15.452Z,84.87
2022-09-20T00:08:43.012Z,84.46
2022-09-20T00:11:15.645Z,84.28
2022-09-20T00:13:44.344Z,83.88
2022-09-20T00:16:14.531Z,84.23
2022-09-20T00:18:41.540Z,84.77
2022-09-20T00:21:15.251Z,85.36
2022-09-20T00:23:41.813Z,84.93
2022-09-20T00:26:08.417Z,84.96
2022-09-20T00:28:35.012Z,84.46
2022-09-20T00:31:01.751Z,85.09
2022-09-20T00:33:48.332Z,84.98
2022-09-20T00:36:15.703Z,86.75
2022-09-20T00:38:42.505Z,85.95
2022-09-20T00:41:09.437Z,86.29
2022-09-20T00:43:44.808Z,85.16
2022-09-20T00:46:26.350Z,85.51
2022-09-20T00:48:59.017Z,85.17
2022-09-20T00:51:29.880Z,85.17
2022-09-20T00:54:01.078Z,84.87
2022-09-20T00:56:37.220Z,85.66
2022-09-20T00:59:14.432Z,84.95
2022-09-20T01:01:42.440Z,85.48
2022-09-20T01:04:09.155Z,85.52
2022-09-20T01:06:36.121Z,86.27
2022-09-20T01:09:05.472Z,86.18
2022-09-20T01:11:32.133Z,86.07
2022-09-20T01:13:58.806Z,86.84
2022-09-20T01:16:27.138Z,85.21
2022-09-20T01:18:59.036Z,84.60
2022-09-20T01:21:27.458Z,84.60
2022-09-20T01:24:27.471Z,84.96
2022-09-20T01:27:13.232Z,86.00
2022-09-20T01:30:04.205Z,86.55
2022-09-20T01:32:52.082Z,86.70
2022-09-20T01:35:21.385Z,86.76
2022-09-20T01:38:19.084Z,86.76
2022-09-20T01:41:12.343Z,86.67
2022-09-20T01:43:54.194Z,86.90
2022-09-20T01:46:25.468Z,87.18
2022-09-20T01:48:59.738Z,87.18
2022-09-20T01:51:52.366Z,87.10
2022-09-20T01:54:38.629Z,86.56
2022-09-20T01:57:35.526Z,86.26
2022-09-20T02:00:05.517Z,85.94
2022-09-20T02:02:59.920Z,85.93
2022-09-20T02:05:54.499Z,86.22
2022-09-20T02:08:48.788Z,85.88
2022-09-20T02:11:37.074Z,85.58
2022-09-20T02:14:23.908Z,85.77
2022-09-20T02:16:55.729Z,86.45
2022-09-20T02:19:37.664Z,86.43
2022-09-20T02:22:37.584Z,86.65
2022-09-20T02:25:41.093Z,87.14
2022-09-20T02:28:28.902Z,86.33
2022-09-20T02:31:07.641Z,86.22
2022-09-20T02:33:48.668Z,87.02
2022-09-20T02:36:36.960Z,87.07
2022-09-20T02:39:19.571Z,86.64
2022-09-20T02:41:46.168Z,86.79
2022-09-20T02:44:24.637Z,86.46
2022-09-20T02:47:09.980Z,87.12
2022-09-20T02:49:46.568Z,87.09
2022-09-20T02:52:33.416Z,87.10
2022-09-20T02:55:08.119Z,87.52
2022-09-20T02:57:44.844Z,87.39
2022-09-20T03:00:17.806Z,87.06
2022-09-20T03:03:06.021Z,87.28
2022-09-20T03:05:35.459Z,87.68
2022-09-20T03:08:23.500Z,87.32
2022-09-20T03:11:07.990Z,87.58
2022-09-20T03:13:50.626Z,88.10
2022-09-20T03:16:34.763Z,87.50
2022-09-20T03:19:27.081Z,87.92
2022-09-20T03:22:19.553Z,88.74
2022-09-20T03:25:07.961Z,88.32
2022-09-20T03:27:43.302Z,87.53
2022-09-20T03:30:28.862Z,88.02
2022-09-20T03:33:18.654Z,87.62
2022-09-20T03:35:59.076Z,88.86
2022-09-20T03:38:53.625Z,88.72
2022-09-20T03:41:49.284Z,89.03
2022-09-20T03:44:40.105Z,88.36
2022-09-20T03:47:51.238Z,88.48
2022-09-20T03:50:39.739Z,88.06
2022-09-20T03:53:06.285Z,87.66
2022-09-20T03:55:58.888Z,87.53
2022-09-20T03:58:34.810Z,87.74
2022-09-20T04:01:24.100Z,87.53
2022-09-20T04:04:04.345Z,87.22
2022-09-20T04:06:49.605Z,86.93
2022-09-20T04:09:43.384Z,86.93
2022-09-20T04:12:30.757Z,87.32
2022-09-20T04:15:16.111Z,87.00
2022-09-20T04:18:19.312Z,86.96
2022-09-20T04:20:56.687Z,86.98
2022-09-20T04:23:43.129Z,87.19
2022-09-20T04:26:10.003Z,86.71
2022-09-20T04:28:55.706Z,86.29
2022-09-20T04:31:34.458Z,86.29
2022-09-20T04:34:03.808Z,86.09
2022-09-20T04:36:52.084Z,86.32
2022-09-20T04:39:45.369Z,86.73
2022-09-20T04:42:36.891Z,86.45
2022-09-20T04:45:31.908Z,86.59
2022-09-20T04:48:20.436Z,86.15
2022-09-20T04:51:23.173Z,86.23
2022-09-20T04:54:26.811Z,86.47
2022-09-20T04:57:21.179Z,86.72
2022-09-20T05:00:02.900Z,86.69
2022-09-20T05:02:42.489Z,86.66
2022-09-20T05:05:43.967Z,87.26
2022-09-20T05:08:32.554Z,86.94
2022-09-20T05:11:30.565Z,87.78
2022-09-20T05:14:28.696Z,86.71
2022-09-20T05:17:14.646Z,86.78
2022-09-20T05:20:12.394Z,87.31
2022-09-20T05:22:57.199Z,86.93
2022-09-20T05:25:42.683Z,86.92
2022-09-20T05:28:39.040Z,86.96
2022-09-20T05:31:13.597Z,87.00
2022-09-20T05:33:54.688Z,87.50
2022-09-20T05:36:46.560Z,86.93
2022-09-20T05:39:34.342Z,86.14
2022-09-20T05:42:24.570Z,86.08
2022-09-20T05:44:55.091Z,85.45
2022-09-20T05:47:34.964Z,85.00
2022-09-20T05:50:23.538Z,85.20
2022-09-20T05:53:22.476Z,85.21
2022-09-20T05:55:58.216Z,84.84
2022-09-20T05:58:34.157Z,83.58
2022-09-20T06:01:53.112Z,83.64
2022-09-20T06:04:25.768Z,83.17
2022-09-20T06:07:13.467Z,83.38
2022-09-20T06:10:31.051Z,82.74
2022-09-20T06:13:15.547Z,82.92
2022-09-20T06:16:07.636Z,83.41
2022-09-20T06:18:53.349Z,83.40
2022-09-20T06:21:40.467Z,84.35
2022-09-20T06:24:26.395Z,83.82
2022-09-20T06:26:56.885Z,83.96
2022-09-20T06:29:33.463Z,83.36
2022-09-20T06:32:00.187Z,83.16
2022-09-20T06:34:28.596Z,83.21
2022-09-20T06:37:25.215Z,84.51
2022-09-20T06:40:25.798Z,84.94
2022-09-20T06:42:53.891Z,83.95
2022-09-20T06:45:20.485Z,83.79
2022-09-20T06:47:47.073Z,85.82
2022-09-20T06:50:17.473Z,84.30
2022-09-20T06:52:45.432Z,85.40
2022-09-20T06:55:40.878Z,82.52
2022-09-20T06:58:09.224Z,84.87
2022-09-20T07:00:36.112Z,83.59
2022-09-20T07:03:02.781Z,84.36
2022-09-20T07:05:29.385Z,85.01
2022-09-20T07:07:59.788Z,86.92
2022-09-20T07:10:30.065Z,84.24
2022-09-20T07:13:01.853Z,72.55
2022-09-20T07:15:31.325Z,63.83
2022-09-20T07:17:58.758Z,54.89
2022-09-20T07:20:25.411Z,52.75
2022-09-20T07:22:53.568Z,46.42
2022-09-20T07:25:20.803Z,45.24
2022-09-20T07:27:50.315Z,44.59
2022-09-20T07:30:19.033Z,49.39
2022-09-20T07:32:45.876Z,49.78
2022-09-20T07:35:12.742Z,48.86
2022-09-20T07:37:41.356Z,55.71
2022-09-20T07:40:10.455Z,56.29
2022-09-20T07:42:37.650Z,54.34
2022-09-20T07:45:05.032Z,53.99
2022-09-20T07:47:35.361Z,54.33
2022-09-20T07:50:02.808Z,53.98
2022-09-20T07:52:29.530Z,56.86
2022-09-20T07:54:56.343Z,60.10
2022-09-20T07:57:23.268Z,62.68
2022-09-20T07:59:49.879Z,61.29
2022-09-20T08:02:16.859Z,52.23
2022-09-20T08:04:44.192Z,50.69
2022-09-20T08:07:11.079Z,49.13
2022-09-20T08:09:37.712Z,52.62
2022-09-20T08:14:52.442Z,53.37
2022-09-20T08:17:19.534Z,51.19
2022-09-20T08:19:46.336Z,52.36
2022-09-20T08:22:13.045Z,55.75
2022-09-20T08:24:39.730Z,54.17
2022-09-20T08:27:06.340Z,52.06
2022-09-20T08:29:32.974Z,55.56
2022-09-20T08:32:01.479Z,54.47
2022-09-20T08:34:28.315Z,52.13
2022-09-20T08:36:56.552Z,52.24
2022-09-20T08:42:37.840Z,49.02
2022-09-20T08:45:22.251Z,51.02
2022-09-20T08:48:02.397Z,46.88
2022-09-20T08:50:29.068Z,50.46
2022-09-20T08:53:00.091Z,50.22
2022-09-20T08:55:36.541Z,47.21
2022-09-20T08:58:08.191Z,40.48
2022-09-20T09:00:37.603Z,36.78
2022-09-20T09:03:17.530Z,32.94
2022-09-20T09:05:52.680Z,31.47
2022-09-20T09:08:27.252Z,34.47
2022-09-20T09:10:57.485Z,29.45
2022-09-20T09:13:43.368Z,28.50
2022-09-20T09:16:15.576Z,31.85
2022-09-20T09:18:45.539Z,32.61
2022-09-20T09:21:22.189Z,28.01
2022-09-20T09:24:01.150Z,25.75
2022-09-20T09:26:35.111Z,28.01
2022-09-20T09:29:11.476Z,29.69
2022-09-20T09:31:39.656Z,26.54
2022-09-20T09:34:24.669Z,30.23
2022-09-20T09:36:51.524Z,27.91
2022-09-20T09:39:38.138Z,24.65
2022-09-20T09:42:28.776Z,28.45
2022-09-20T09:45:11.568Z,31.56
2022-09-20T09:47:38.414Z,25.71
2022-09-20T09:50:09.735Z,32.28
2022-09-20T09:52:36.888Z,33.81
2022-09-20T09:55:05.833Z,32.36
2022-09-20T09:58:02.011Z,33.24
2022-09-20T10:00:31.423Z,36.13
2022-09-20T10:03:10.042Z,35.29
2022-09-20T10:05:48.496Z,33.67
2022-09-20T10:08:30.146Z,33.90
2022-09-20T10:11:13.617Z,36.22
2022-09-20T10:14:08.096Z,30.14
2022-09-20T10:17:21.192Z,27.35
2022-09-20T10:20:18.700Z,27.67
2022-09-20T10:23:39.411Z,32.78
2022-09-20T10:26:08.016Z,33.31
2022-09-20T10:28:48.383Z,33.25
2022-09-20T10:31:33.255Z,25.86
2022-09-20T10:34:45.982Z,27.19
2022-09-20T10:37:49.078Z,30.43
2022-09-20T10:40:16.026Z,31.21
2022-09-20T10:43:07.282Z,31.73
2022-09-20T10:46:08.839Z,31.27
2022-09-20T10:48:35.600Z,33.40
2022-09-20T10:51:15.488Z,34.51
2022-09-20T10:54:10.720Z,33.46
2022-09-20T10:56:49.174Z,32.73
2022-09-20T10:59:22.508Z,35.13
2022-09-20T11:02:11.404Z,35.78
2022-09-20T11:05:25.873Z,34.02
2022-09-20T11:08:09.114Z,35.63
2022-09-20T11:11:00.145Z,35.87
2022-09-20T11:13:48.903Z,34.92
2022-09-20T11:16:26.846Z,34.36
2022-09-20T11:19:02.893Z,34.31
2022-09-20T11:21:52.457Z,33.79
2022-09-20T11:24:35.102Z,31.54
2022-09-20T11:27:40.348Z,32.89
2022-09-20T11:30:20.008Z,32.97
2022-09-20T11:32:53.995Z,34.21
2022-09-20T11:35:27.498Z,34.30
2022-09-20T11:38:05.050Z,34.47
2022-09-20T11:40:36.909Z,32.31
2022-09-20T11:43:07.230Z,31.79
2022-09-20T11:45:35.387Z,32.57
2022-09-20T11:48:25.853Z,32.30
2022-09-20T11:51:21.100Z,37.26
2022-09-20T11:53:47.642Z,35.96
2022-09-20T11:56:23.424Z,37.64
2022-09-20T11:58:55.910Z,36.42
2022-09-20T12:01:28.783Z,37.26
2022-09-20T12:04:20.996Z,35.89
2022-09-20T12:06:47.648Z,35.24
2022-09-20T12:09:33.899Z,38.28
2022-09-20T12:12:15.214Z,38.03
2022-09-20T12:14:42.226Z,37.22
2022-09-20T12:17:47.031Z,39.01
2022-09-20T12:20:32.380Z,40.10
2022-09-20T12:23:36.466Z,39.48
2022-09-20T12:26:21.960Z,39.11
2022-09-20T12:28:50.892Z,42.27
2022-09-20T12:31:29.445Z,44.31
2022-09-20T12:34:03.656Z,43.44
2022-09-20T12:36:39.433Z,44.44
2022-09-20T12:39:11.758Z,43.76
2022-09-20T12:41:50.442Z,41.74
2022-09-20T12:44:35.086Z,42.98
2022-09-20T12:47:10.725Z,40.72
2022-09-20T12:50:09.267Z,38.96
2022-09-20T12:52:53.345Z,35.53
2022-09-20T12:55:49.823Z,36.03
2022-09-20T12:58:52.169Z,37.07
2022-09-20T13:01:18.739Z,37.10
2022-09-20T13:03:50.611Z,40.92
2022-09-20T13:06:18.466Z,42.11
2022-09-20T13:08:49.625Z,41.24
2022-09-20T13:11:20.927Z,41.23
2022-09-20T13:13:55.494Z,39.61
2022-09-20T13:16:34.145Z,42.05
2022-09-20T13:19:12.050Z,42.30
2022-09-20T13:21:42.279Z,41.17
2022-09-20T13:24:15.990Z,41.12
2022-09-20T13:26:46.096Z,39.49
2022-09-20T13:29:37.313Z,39.37
2022-09-20T13:32:24.068Z,38.74
2022-09-20T13:35:12.266Z,39.22
2022-09-20T13:37:53.614Z,38.23
2022-09-20T13:40:36.536Z,36.07
2022-09-20T13:43:23.071Z,35.81
2022-09-20T13:45:56.300Z,38.45
2022-09-20T13:48:30.313Z,38.85
2022-09-20T13:50:57.567Z,41.78
2022-09-20T13:53:42.627Z,42.56
2022-09-20T13:56:18.907Z,42.90
2022-09-20T13:58:45.853Z,42.87
2022-09-20T14:01:27.660Z,40.90
2022-09-20T14:03:58.493Z,40.21
2022-09-20T14:06:29.715Z,39.45
2022-09-20T14:08:59.572Z,39.18
2022-09-20T14:11:30.428Z,42.98
2022-09-20T14:13:59.675Z,42.01
2022-09-20T14:16:45.146Z,41.24
2022-09-20T14:19:15.618Z,44.50
2022-09-20T14:21:43.677Z,44.56
2022-09-20T14:24:16.398Z,44.33
2022-09-20T14:26:59.613Z,44.44
2022-09-20T14:29:41.288Z,45.32
2022-09-20T14:32:12.312Z,43.45
2022-09-20T14:34:41.353Z,44.57
2022-09-20T14:37:23.107Z,44.61
2022-09-20T14:39:54.098Z,43.92
2022-09-20T14:42:43.673Z,44.02
2022-09-20T14:45:23.440Z,43.26
2022-09-20T14:48:11.233Z,44.58
2022-09-20T14:50:43.933Z,46.57
2022-09-20T14:53:13.251Z,46.81
2022-09-20T14:56:01.055Z,46.72
2022-09-20T14:58:27.968Z,46.40
2022-09-20T15:01:03.046Z,45.93
2022-09-20T15:03:41.329Z,48.12
2022-09-20T15:06:12.760Z,47.51
2022-09-20T15:08:45.451Z,47.69
2022-09-20T15:11:14.914Z,47.95
2022-09-20T15:13:41.928Z,47.13
2022-09-20T15:16:09.056Z,47.12
2022-09-20T15:18:40.870Z,46.62
2022-09-20T15:21:07.554Z,46.77
2022-09-20T15:23:35.592Z,46.14
2022-09-20T15:26:02.619Z,46.77
2022-09-20T15:28:29.312Z,46.53
2022-09-20T15:30:57.506Z,47.01
2022-09-20T15:33:24.367Z,45.83
2022-09-20T15:35:50.990Z,45.66
2022-09-20T15:38:19.326Z,44.75
2022-09-20T15:40:48.185Z,44.36
2022-09-20T15:43:19.557Z,43.78
2022-09-20T15:46:02.406Z,43.35
2022-09-20T15:48:30.746Z,43.69
2022-09-20T15:51:06.653Z,43.65
2022-09-20T15:53:35.698Z,45.35
2022-09-20T15:56:05.314Z,45.01
2022-09-20T15:58:36.083Z,45.21
2022-09-20T16:01:08.462Z,45.89
2022-09-20T16:03:36.079Z,46.67
2022-09-20T16:06:07.286Z,46.99
2022-09-20T16:08:36.117Z,48.09
2022-09-20T16:11:04.105Z,48.27
2022-09-20T16:13:30.758Z,48.56
2022-09-20T16:15:59.787Z,47.59
2022-09-20T16:18:46.020Z,47.96
2022-09-20T16:21:14.563Z,48.65
2022-09-20T16:23:44.825Z,49.12
2022-09-20T16:26:13.017Z,48.43
2022-09-20T16:28:45.202Z,49.30
2022-09-20T16:31:36.684Z,48.68
2022-09-20T16:34:05.475Z,48.55
2022-09-20T16:36:32.894Z,49.19
2022-09-20T16:39:01.189Z,49.83
2022-09-20T16:41:28.910Z,50.90
2022-09-20T16:43:56.054Z,51.86
2022-09-20T16:46:25.067Z,52.76
2022-09-20T16:48:53.680Z,52.78
2022-09-20T16:51:22.028Z,53.38
2022-09-20T16:53:48.712Z,54.19
2022-09-20T16:56:21.652Z,55.31
2022-09-20T16:58:48.799Z,55.79
2022-09-20T17:01:16.621Z,55.85
2022-09-20T17:03:44.725Z,56.23
2022-09-20T17:06:12.670Z,56.38
2022-09-20T17:08:42.364Z,56.97
2022-09-20T17:11:37.212Z,58.50
2022-09-20T17:14:04.973Z,59.92
2022-09-20T17:16:37.432Z,60.18
2022-09-20T17:19:07.398Z,60.82
2022-09-20T17:21:36.058Z,61.27
2022-09-20T17:24:04.139Z,61.07
2022-09-20T17:26:36.772Z,60.84
2022-09-20T17:29:06.531Z,60.00
2022-09-20T17:31:41.756Z,61.34
2022-09-20T17:34:10.976Z,61.65
2022-09-20T17:36:47.081Z,61.84
2022-09-20T17:39:15.309Z,62.34
2022-09-20T17:41:47.608Z,63.06
2022-09-20T17:44:15.255Z,63.67
2022-09-20T17:46:44.717Z,64.63
2022-09-20T17:49:16.963Z,64.80
2022-09-20T17:51:45.850Z,64.60
2022-09-20T17:54:14.142Z,64.65
2022-09-20T17:56:46.379Z,64.34
2022-09-20T17:59:16.911Z,65.01
2022-09-20T18:01:45.347Z,65.42
2022-09-20T18:04:12.860Z,66.42
2022-09-20T18:06:47.063Z,66.49
2022-09-20T18:09:19.277Z,66.32
2022-09-20T18:11:51.172Z,66.76
2022-09-20T18:14:20.475Z,66.15
2022-09-20T18:16:47.515Z,66.19
2022-09-20T18:19:16.006Z,65.57
2022-09-20T18:21:43.405Z,65.33
2022-09-20T18:24:11.416Z,65.87
2022-09-20T18:26:38.825Z,65.11
2022-09-20T18:29:08.004Z,65.78
2022-09-20T18:31:44.583Z,66.53
2022-09-20T18:34:13.546Z,66.87
2022-09-20T18:36:40.243Z,68.87
2022-09-20T18:39:07.734Z,69.22
2022-09-20T18:41:36.721Z,70.06
2022-09-20T18:44:07.055Z,70.09
2022-09-20T18:46:37.782Z,69.32
2022-09-20T18:49:07.303Z,68.92
2022-09-20T18:51:39.167Z,68.21
2022-09-20T18:54:08.973Z,68.51
2022-09-20T18:56:37.251Z,68.16
2022-09-20T18:59:04.193Z,68.33
2022-09-20T19:01:36.651Z,68.84
2022-09-20T19:04:27.913Z,68.82
2022-09-20T19:07:23.109Z,69.08
2022-09-20T19:09:54.552Z,68.64
2022-09-20T19:12:26.032Z,68.14
2022-09-20T19:15:02.848Z,69.11
2022-09-20T19:17:55.973Z,69.87
2022-09-20T19:20:41.384Z,70.44
2022-09-20T19:23:27.813Z,69.60
2022-09-20T19:26:20.808Z,69.93
2022-09-20T19:28:52.643Z,69.68
2022-09-20T19:31:31.138Z,68.98
2022-09-20T19:34:06.652Z,70.81
2022-09-20T19:37:00.015Z,70.08
2022-09-20T19:39:41.823Z,69.89
2022-09-20T19:42:28.591Z,69.21
2022-09-20T19:45:32.649Z,69.26
2022-09-20T19:48:14.498Z,69.41
2022-09-20T19:50:46.431Z,69.54
2022-09-20T19:53:17.855Z,69.54
2022-09-20T19:55:48.233Z,70.22
2022-09-20T19:58:15.317Z,69.94
2022-09-20T20:00:46.626Z,70.85
2022-09-20T20:03:14.657Z,70.96
2022-09-20T20:06:11.277Z,71.01
2022-09-20T20:08:50.654Z,70.96
2022-09-20T20:11:51.377Z,70.71
2022-09-20T20:14:29.781Z,71.49
2022-09-20T20:17:11.292Z,71.65
2022-09-20T20:19:47.072Z,71.23
2022-09-20T20:22:28.390Z,71.40
2022-09-20T20:24:58.857Z,72.17
2022-09-20T20:27:28.347Z,71.82
2022-09-20T20:29:55.729Z,71.45
2022-09-20T20:32:23.344Z,71.19
2022-09-20T20:34:50.186Z,72.09
2022-09-20T20:37:18.111Z,72.16
2022-09-20T20:39:44.745Z,72.61
2022-09-20T20:42:12.757Z,72.04
2022-09-20T20:44:40.016Z,71.71
2022-09-20T20:47:07.184Z,71.76
2022-09-20T20:49:34.576Z,71.31
2022-09-20T20:52:04.651Z,71.95
2022-09-20T20:54:32.235Z,71.62
2022-09-20T20:56:59.359Z,71.95
2022-09-20T20:59:26.023Z,72.97
2022-09-20T21:01:52.738Z,72.94
2022-09-20T21:04:19.998Z,73.50
2022-09-20T21:06:46.815Z,72.98
2022-09-20T21:09:13.546Z,73.08
2022-09-20T21:11:44.802Z,73.77
2022-09-20T21:14:12.843Z,73.13
2022-09-20T21:16:45.011Z,73.38
2022-09-20T21:19:18.141Z,72.65
2022-09-20T21:21:47.189Z,72.12
2022-09-20T21:24:17.083Z,73.15
2022-09-20T21:26:45.669Z,73.61
2022-09-20T21:29:14.372Z,73.48
2022-09-20T21:31:43.735Z,73.20
2022-09-20T21:34:12.120Z,72.60
2022-09-20T21:36:41.446Z,72.19
2022-09-20T21:39:08.615Z,72.61
2022-09-20T21:41:37.586Z,73.08
2022-09-20T21:44:05.909Z,73.15
2022-09-20T21:46:39.167Z,72.89
2022-09-20T21:49:08.548Z,73.27
2022-09-20T21:51:36.114Z,74.39
2022-09-20T21:54:03.861Z,75.15
2022-09-20T21:56:35.815Z,74.00
2022-09-20T21:59:03.880Z,74.07
2022-09-20T22:01:36.108Z,73.41
2022-09-20T22:04:11.197Z,73.05
2022-09-20T22:06:40.219Z,75.21
2022-09-20T22:09:10.320Z,76.13
2022-09-20T22:11:40.433Z,77.06
2022-09-20T22:14:08.305Z,77.39
2022-09-20T22:16:37.873Z,77.34
2022-09-20T22:19:05.823Z,76.81
2022-09-20T22:21:47.794Z,76.31
2022-09-20T22:24:15.295Z,77.09
2022-09-20T22:26:51.431Z,76.82
2022-09-20T22:29:18.400Z,77.50
2022-09-20T22:31:47.320Z,76.90
2022-09-20T22:34:17.145Z,76.62
2022-09-20T22:36:44.173Z,75.78
2022-09-20T22:39:12.464Z,75.97
2022-09-20T22:41:41.029Z,75.07
2022-09-20T22:44:07.701Z,75.03
2022-09-20T22:46:35.040Z,75.65
2022-09-20T22:49:04.007Z,76.16
2022-09-20T22:51:33.268Z,76.05
2022-09-20T22:54:04.120Z,76.08
2022-09-20T22:56:31.406Z,76.40
2022-09-20T22:59:00.577Z,76.67
2022-09-20T23:01:35.733Z,75.78
2022-09-20T23:04:08.250Z,76.93
2022-09-20T23:06:38.989Z,77.14
2022-09-20T23:09:07.998Z,77.00
2022-09-20T23:11:35.317Z,75.94
2022-09-20T23:14:06.886Z,77.70
2022-09-20T23:16:35.664Z,77.54
2022-09-20T23:19:05.073Z,77.21
2022-09-20T23:21:32.854Z,77.69
2022-09-20T23:24:02.012Z,79.21
2022-09-20T23:26:31.250Z,79.27
2022-09-20T23:29:03.620Z,79.26
2022-09-20T23:31:32.002Z,78.34
2022-09-20T23:34:00.366Z,78.18
2022-09-20T23:36:29.659Z,77.82
2022-09-20T23:38:59.800Z,76.95
2022-09-20T23:41:27.811Z,78.05
2022-09-20T23:43:54.941Z,78.65
2022-09-20T23:46:23.254Z,78.47
2022-09-20T23:48:52.723Z,79.87
2022-09-20T23:51:23.372Z,79.46
2022-09-20T23:53:50.955Z,79.52
2022-09-20T23:56:18.153Z,78.93
2022-09-20T23:58:46.416Z,78.53
